McCook Lake, South Dakota
Current Conditions -  °F | °C
As of 7:52 PM on Tuesday 21 Oct 2014 (Local Time) from KSUX Reporting Station
Clear Clear  
Wind Chill: 63°   Ceiling: Unl
Heat Index: 63°   Visibility: 10mi
Dew Point: 42°   Wind: 8mph
Humidity: 46%   Direction: 140°SE
Pressure: 30.02"   Gusts: NA
Location:  42.532°N, 96.5446°W
Report Text: KSUX 220052Z 14007KT 10SM CLR 17/06 A3002 RMK AO2 SLP168 T01720056
Loading
Personal Weather Stations






























Interactive Weather Map New forecast layout! Learn more

10-Day Weather Forecast

Advertisements
Track Severe Weather on mobile